sensor_id;sensor_type;location;lat;lon;timestamp;pressure;altitude;pressure_sealevel;temperature;humidity
16190;BME280;41754;51.498;7.540;2023-04-28T00:00:00;100123.19;;;9.97;49.37
16190;BME280;41754;51.498;7.540;2023-04-28T00:02:30;100123.47;;;10.32;48.25
16190;BME280;41754;51.498;7.540;2023-04-28T00:04:58;100118.09;;;10.27;47.05
16190;BME280;41754;51.498;7.540;2023-04-28T00:07:26;100108.97;;;10.40;47.08
16190;BME280;41754;51.498;7.540;2023-04-28T00:09:54;100105.91;;;10.41;47.58
16190;BME280;41754;51.498;7.540;2023-04-28T00:12:23;100100.34;;;10.33;47.65
16190;BME280;41754;51.498;7.540;2023-04-28T00:14:52;100102.72;;;10.88;46.38
16190;BME280;41754;51.498;7.540;2023-04-28T00:17:20;100098.72;;;10.54;47.56
16190;BME280;41754;51.498;7.540;2023-04-28T00:19:49;100098.94;;;10.66;47.30
16190;BME280;41754;51.498;7.540;2023-04-28T00:22:17;100099.38;;;10.60;48.02
16190;BME280;41754;51.498;7.540;2023-04-28T00:24:45;100090.94;;;10.56;47.39
16190;BME280;41754;51.498;7.540;2023-04-28T00:27:13;100086.31;;;10.65;47.43
16190;BME280;41754;51.498;7.540;2023-04-28T00:29:40;100076.59;;;10.68;47.73
16190;BME280;41754;51.498;7.540;2023-04-28T00:32:10;100066.59;;;10.41;48.26
16190;BME280;41754;51.498;7.540;2023-04-28T00:34:39;100074.41;;;10.25;49.17
16190;BME280;41754;51.498;7.540;2023-04-28T00:37:07;100065.69;;;10.54;49.05
16190;BME280;41754;51.498;7.540;2023-04-28T00:39:35;100068.47;;;10.63;49.82
16190;BME280;41754;51.498;7.540;2023-04-28T00:42:03;100067.41;;;10.41;50.24
16190;BME280;41754;51.498;7.540;2023-04-28T00:44:30;100059.59;;;10.35;50.46
16190;BME280;41754;51.498;7.540;2023-04-28T00:46:58;100053.78;;;10.36;49.58
16190;BME280;41754;51.498;7.540;2023-04-28T00:49:29;100062.72;;;10.42;51.03
16190;BME280;41754;51.498;7.540;2023-04-28T00:51:57;100056.94;;;10.52;50.22
16190;BME280;41754;51.498;7.540;2023-04-28T00:54:29;100058.94;;;10.29;50.53
16190;BME280;41754;51.498;7.540;2023-04-28T00:56:57;100053.69;;;10.19;50.47
16190;BME280;41754;51.498;7.540;2023-04-28T00:59:25;100055.59;;;10.41;51.09
16190;BME280;41754;51.498;7.540;2023-04-28T01:01:53;100044.50;;;10.55;51.18
16190;BME280;41754;51.498;7.540;2023-04-28T01:04:22;100043.59;;;10.37;51.97
16190;BME280;41754;51.498;7.540;2023-04-28T01:06:52;100045.31;;;10.55;51.79
16190;BME280;41754;51.498;7.540;2023-04-28T01:09:22;100044.19;;;10.56;51.10
16190;BME280;41754;51.498;7.540;2023-04-28T01:11:51;100048.59;;;10.74;51.76
16190;BME280;41754;51.498;7.540;2023-04-28T01:14:41;100049.22;;;10.32;54.17
16190;BME280;41754;51.498;7.540;2023-04-28T01:17:09;100053.38;;;10.20;54.70
16190;BME280;41754;51.498;7.540;2023-04-28T01:19:39;100045.03;;;10.34;55.23
16190;BME280;41754;51.498;7.540;2023-04-28T01:22:08;100044.72;;;10.13;57.54
16190;BME280;41754;51.498;7.540;2023-04-28T01:24:41;100045.13;;;10.20;57.39
16190;BME280;41754;51.498;7.540;2023-04-28T01:27:10;100049.03;;;10.06;58.62
16190;BME280;41754;51.498;7.540;2023-04-28T01:29:40;100049.28;;;10.40;58.05
16190;BME280;41754;51.498;7.540;2023-04-28T01:32:08;100043.59;;;10.37;58.26
16190;BME280;41754;51.498;7.540;2023-04-28T01:34:38;100032.09;;;10.12;59.51
16190;BME280;41754;51.498;7.540;2023-04-28T01:37:06;100039.63;;;10.20;60.53
16190;BME280;41754;51.498;7.540;2023-04-28T01:39:35;100030.47;;;10.34;60.49
16190;BME280;41754;51.498;7.540;2023-04-28T01:42:05;100039.41;;;10.17;60.95
16190;BME280;41754;51.498;7.540;2023-04-28T01:44:33;100036.88;;;10.20;62.74
16190;BME280;41754;51.498;7.540;2023-04-28T01:47:01;100033.09;;;10.16;62.16
16190;BME280;41754;51.498;7.540;2023-04-28T01:49:29;100031.53;;;10.02;63.29
16190;BME280;41754;51.498;7.540;2023-04-28T01:51:57;100036.91;;;9.84;65.25
16190;BME280;41754;51.498;7.540;2023-04-28T01:54:25;100039.59;;;9.76;66.40
16190;BME280;41754;51.498;7.540;2023-04-28T01:56:53;100039.34;;;9.86;67.43
16190;BME280;41754;51.498;7.540;2023-04-28T01:59:23;100039.25;;;9.91;68.20
16190;BME280;41754;51.498;7.540;2023-04-28T02:01:52;100031.09;;;10.08;67.35
16190;BME280;41754;51.498;7.540;2023-04-28T02:04:20;100030.44;;;9.80;68.90
16190;BME280;41754;51.498;7.540;2023-04-28T02:06:48;100034.00;;;9.81;69.35
16190;BME280;41754;51.498;7.540;2023-04-28T02:09:16;100026.72;;;10.07;68.59
16190;BME280;41754;51.498;7.540;2023-04-28T02:11:44;100035.97;;;9.89;69.80
16190;BME280;41754;51.498;7.540;2023-04-28T02:14:12;100027.28;;;10.18;68.94
16190;BME280;41754;51.498;7.540;2023-04-28T02:16:42;100042.34;;;9.98;69.54
16190;BME280;41754;51.498;7.540;2023-04-28T02:19:10;100031.75;;;10.28;68.24
16190;BME280;41754;51.498;7.540;2023-04-28T02:21:38;100035.84;;;10.16;68.61
16190;BME280;41754;51.498;7.540;2023-04-28T02:24:08;100036.44;;;9.82;70.78
16190;BME280;41754;51.498;7.540;2023-04-28T02:26:36;100034.34;;;10.33;68.02
16190;BME280;41754;51.498;7.540;2023-04-28T02:29:04;100042.34;;;9.98;70.68
16190;BME280;41754;51.498;7.540;2023-04-28T02:31:32;100047.41;;;10.05;71.20
16190;BME280;41754;51.498;7.540;2023-04-28T02:34:01;100039.34;;;10.31;70.31
16190;BME280;41754;51.498;7.540;2023-04-28T02:36:29;100034.72;;;10.40;70.41
16190;BME280;41754;51.498;7.540;2023-04-28T02:38:59;100026.38;;;10.54;68.72
16190;BME280;41754;51.498;7.540;2023-04-28T02:41:27;100022.19;;;10.03;69.91
16190;BME280;41754;51.498;7.540;2023-04-28T02:43:56;100004.84;;;10.25;67.60
16190;BME280;41754;51.498;7.540;2023-04-28T02:46:24;99992.13;;;10.29;65.86
16190;BME280;41754;51.498;7.540;2023-04-28T02:48:52;99999.03;;;10.26;65.26
16190;BME280;41754;51.498;7.540;2023-04-28T02:51:22;99993.47;;;10.40;63.70
16190;BME280;41754;51.498;7.540;2023-04-28T02:53:50;99998.09;;;10.31;63.50
16190;BME280;41754;51.498;7.540;2023-04-28T02:56:18;99993.63;;;10.43;63.32
16190;BME280;41754;51.498;7.540;2023-04-28T02:58:46;99999.50;;;10.19;64.46
16190;BME280;41754;51.498;7.540;2023-04-28T03:01:14;100001.53;;;10.36;63.23
16190;BME280;41754;51.498;7.540;2023-04-28T03:03:42;100006.09;;;10.41;63.00
16190;BME280;41754;51.498;7.540;2023-04-28T03:06:10;100005.63;;;10.47;63.22
16190;BME280;41754;51.498;7.540;2023-04-28T03:08:40;100002.75;;;10.61;62.57
16190;BME280;41754;51.498;7.540;2023-04-28T03:11:08;100000.69;;;10.75;61.89
16190;BME280;41754;51.498;7.540;2023-04-28T03:13:37;100002.22;;;10.50;62.80
16190;BME280;41754;51.498;7.540;2023-04-28T03:16:05;100003.50;;;10.44;62.94
16190;BME280;41754;51.498;7.540;2023-04-28T03:18:34;99997.94;;;10.67;62.81
16190;BME280;41754;51.498;7.540;2023-04-28T03:21:02;100011.22;;;10.65;63.74
16190;BME280;41754;51.498;7.540;2023-04-28T03:23:30;100002.25;;;10.59;64.04
16190;BME280;41754;51.498;7.540;2023-04-28T03:26:00;100004.47;;;10.40;64.74
16190;BME280;41754;51.498;7.540;2023-04-28T03:28:28;99998.16;;;10.48;64.81
16190;BME280;41754;51.498;7.540;2023-04-28T03:30:58;99999.88;;;10.66;64.99
16190;BME280;41754;51.498;7.540;2023-04-28T03:33:26;99992.97;;;10.77;65.11
16190;BME280;41754;51.498;7.540;2023-04-28T03:35:54;99988.72;;;10.71;64.90
16190;BME280;41754;51.498;7.540;2023-04-28T03:38:22;99991.91;;;10.56;66.21
16190;BME280;41754;51.498;7.540;2023-04-28T03:40:50;99985.75;;;10.59;66.46
16190;BME280;41754;51.498;7.540;2023-04-28T03:43:58;99986.22;;;10.52;67.08
16190;BME280;41754;51.498;7.540;2023-04-28T03:46:30;99979.13;;;10.60;67.73
16190;BME280;41754;51.498;7.540;2023-04-28T03:49:00;99982.03;;;9.48;68.68
16190;BME280;41754;51.498;7.540;2023-04-28T03:51:29;99985.06;;;10.45;70.56
16190;BME280;41754;51.498;7.540;2023-04-28T03:53:58;99977.84;;;10.27;71.00
16190;BME280;41754;51.498;7.540;2023-04-28T03:56:27;99969.47;;;10.32;70.01
16190;BME280;41754;51.498;7.540;2023-04-28T03:58:55;99980.78;;;9.32;74.67
16190;BME280;41754;51.498;7.540;2023-04-28T04:01:24;99970.91;;;8.95;74.94
16190;BME280;41754;51.498;7.540;2023-04-28T04:03:53;99969.97;;;10.11;73.06
16190;BME280;41754;51.498;7.540;2023-04-28T04:06:22;99960.75;;;10.30;70.82
16190;BME280;41754;51.498;7.540;2023-04-28T04:08:51;99958.09;;;10.56;70.40
16190;BME280;41754;51.498;7.540;2023-04-28T04:11:19;99955.16;;;10.52;70.26
16190;BME280;41754;51.498;7.540;2023-04-28T04:13:48;99965.38;;;9.09;74.73
16190;BME280;41754;51.498;7.540;2023-04-28T04:16:17;99962.66;;;9.76;75.29
16190;BME280;41754;51.498;7.540;2023-04-28T04:18:46;99951.13;;;9.20;73.75
16190;BME280;41754;51.498;7.540;2023-04-28T04:21:19;99945.78;;;10.53;71.27
16190;BME280;41754;51.498;7.540;2023-04-28T04:23:49;99954.28;;;10.03;74.75
16190;BME280;41754;51.498;7.540;2023-04-28T04:26:17;99942.16;;;10.04;72.89
16190;BME280;41754;51.498;7.540;2023-04-28T04:28:47;99942.25;;;10.21;72.11
16190;BME280;41754;51.498;7.540;2023-04-28T04:31:15;99924.72;;;10.48;70.94
16190;BME280;41754;51.498;7.540;2023-04-28T04:33:47;99920.63;;;10.29;71.48
16190;BME280;41754;51.498;7.540;2023-04-28T04:36:17;99913.75;;;10.57;70.77
16190;BME280;41754;51.498;7.540;2023-04-28T04:38:46;99908.34;;;10.35;70.56
16190;BME280;41754;51.498;7.540;2023-04-28T04:41:17;99907.88;;;10.41;70.58
16190;BME280;41754;51.498;7.540;2023-04-28T04:43:47;99912.31;;;10.68;70.58
16190;BME280;41754;51.498;7.540;2023-04-28T04:46:15;99907.63;;;10.69;69.97
16190;BME280;41754;51.498;7.540;2023-04-28T04:48:43;99895.03;;;10.94;70.03
16190;BME280;41754;51.498;7.540;2023-04-28T04:51:13;99907.00;;;11.06;70.09
16190;BME280;41754;51.498;7.540;2023-04-28T04:53:41;99907.47;;;11.00;70.47
16190;BME280;41754;51.498;7.540;2023-04-28T04:56:09;99893.91;;;11.03;69.75
16190;BME280;41754;51.498;7.540;2023-04-28T04:58:37;99892.41;;;11.32;69.01
16190;BME280;41754;51.498;7.540;2023-04-28T05:01:20;99896.97;;;11.19;70.13
16190;BME280;41754;51.498;7.540;2023-04-28T05:03:48;99901.50;;;11.15;69.50
16190;BME280;41754;51.498;7.540;2023-04-28T05:06:20;99899.56;;;11.42;67.91
16190;BME280;41754;51.498;7.540;2023-04-28T05:08:48;99910.22;;;11.26;69.11
16190;BME280;41754;51.498;7.540;2023-04-28T05:11:16;99905.69;;;10.78;71.59
16190;BME280;41754;51.498;7.540;2023-04-28T05:13:45;99912.53;;;11.15;71.46
16190;BME280;41754;51.498;7.540;2023-04-28T05:16:13;99907.81;;;11.07;70.01
16190;BME280;41754;51.498;7.540;2023-04-28T05:18:44;99911.88;;;11.18;70.72
16190;BME280;41754;51.498;7.540;2023-04-28T05:21:13;99921.59;;;11.42;70.38
16190;BME280;41754;51.498;7.540;2023-04-28T05:23:43;99927.22;;;10.85;72.00
16190;BME280;41754;51.498;7.540;2023-04-28T05:26:11;99921.44;;;11.29;70.67
16190;BME280;41754;51.498;7.540;2023-04-28T05:28:39;99921.72;;;11.36;70.59
16190;BME280;41754;51.498;7.540;2023-04-28T05:31:08;99926.13;;;11.63;69.13
16190;BME280;41754;51.498;7.540;2023-04-28T05:33:36;99915.59;;;11.39;67.78
16190;BME280;41754;51.498;7.540;2023-04-28T05:36:05;99912.19;;;10.99;69.31
16190;BME280;41754;51.498;7.540;2023-04-28T05:38:34;99903.59;;;11.35;69.57
16190;BME280;41754;51.498;7.540;2023-04-28T05:41:03;99911.56;;;11.28;69.74
16190;BME280;41754;51.498;7.540;2023-04-28T05:43:32;99911.53;;;11.11;70.67
16190;BME280;41754;51.498;7.540;2023-04-28T05:46:00;99911.22;;;11.21;70.92
16190;BME280;41754;51.498;7.540;2023-04-28T05:48:29;99915.91;;;10.95;72.21
16190;BME280;41754;51.498;7.540;2023-04-28T05:50:57;99915.91;;;10.95;73.01
16190;BME280;41754;51.498;7.540;2023-04-28T05:53:25;99902.78;;;10.83;73.50
16190;BME280;41754;51.498;7.540;2023-04-28T05:55:53;99906.34;;;11.01;73.84
16190;BME280;41754;51.498;7.540;2023-04-28T05:58:22;99891.94;;;11.13;72.66
16190;BME280;41754;51.498;7.540;2023-04-28T06:00:51;99887.06;;;11.01;73.05
16190;BME280;41754;51.498;7.540;2023-04-28T06:03:20;99892.41;;;10.89;74.19
16190;BME280;41754;51.498;7.540;2023-04-28T06:05:48;99882.22;;;10.98;73.27
16190;BME280;41754;51.498;7.540;2023-04-28T06:08:18;99875.44;;;11.04;71.96
16190;BME280;41754;51.498;7.540;2023-04-28T06:10:46;99874.78;;;11.07;71.34
16190;BME280;41754;51.498;7.540;2023-04-28T06:13:14;99876.53;;;11.37;70.32
16190;BME280;41754;51.498;7.540;2023-04-28T06:15:43;99869.91;;;11.21;71.10
16190;BME280;41754;51.498;7.540;2023-04-28T06:18:11;99853.66;;;11.63;69.09
16190;BME280;41754;51.498;7.540;2023-04-28T06:20:41;99854.03;;;11.53;70.00
16190;BME280;41754;51.498;7.540;2023-04-28T06:23:09;99863.63;;;11.93;70.04
16190;BME280;41754;51.498;7.540;2023-04-28T06:25:42;99859.84;;;11.98;68.22
16190;BME280;41754;51.498;7.540;2023-04-28T06:28:11;99874.09;;;12.09;68.13
16190;BME280;41754;51.498;7.540;2023-04-28T06:30:41;99869.63;;;11.87;69.22
16190;BME280;41754;51.498;7.540;2023-04-28T06:33:10;99867.28;;;11.59;70.96
16190;BME280;41754;51.498;7.540;2023-04-28T06:35:38;99862.50;;;11.86;70.38
16190;BME280;41754;51.498;7.540;2023-04-28T06:38:06;99864.34;;;12.11;70.66
16190;BME280;41754;51.498;7.540;2023-04-28T06:40:35;99864.66;;;12.10;69.49
16190;BME280;41754;51.498;7.540;2023-04-28T06:43:05;99862.81;;;11.93;71.23
16190;BME280;41754;51.498;7.540;2023-04-28T06:45:38;99852.50;;;12.40;69.84
16190;BME280;41754;51.498;7.540;2023-04-28T06:48:06;99860.41;;;12.21;70.32
16190;BME280;41754;51.498;7.540;2023-04-28T06:50:38;99850.13;;;12.30;69.54
16190;BME280;41754;51.498;7.540;2023-04-28T06:53:09;99856.22;;;12.44;69.83
16190;BME280;41754;51.498;7.540;2023-04-28T06:55:37;99836.81;;;12.62;69.63
16190;BME280;41754;51.498;7.540;2023-04-28T06:58:05;99838.97;;;12.47;70.01
16190;BME280;41754;51.498;7.540;2023-04-28T07:00:33;99837.50;;;12.50;68.47
16190;BME280;41754;51.498;7.540;2023-04-28T07:03:02;99829.63;;;12.90;67.66
16190;BME280;41754;51.498;7.540;2023-04-28T07:05:31;99821.78;;;13.13;66.28
16190;BME280;41754;51.498;7.540;2023-04-28T07:08:01;99823.13;;;13.07;67.32
16190;BME280;41754;51.498;7.540;2023-04-28T07:10:29;99829.00;;;13.38;65.96
16190;BME280;41754;51.498;7.540;2023-04-28T07:12:57;99836.44;;;13.26;65.07
16190;BME280;41754;51.498;7.540;2023-04-28T07:15:26;99834.16;;;13.28;64.39
16190;BME280;41754;51.498;7.540;2023-04-28T07:17:54;99833.88;;;13.21;64.66
16190;BME280;41754;51.498;7.540;2023-04-28T07:20:22;99829.03;;;13.18;63.77
16190;BME280;41754;51.498;7.540;2023-04-28T07:22:50;99832.63;;;13.51;62.90
16190;BME280;41754;51.498;7.540;2023-04-28T07:25:19;99820.34;;;13.28;63.13
16190;BME280;41754;51.498;7.540;2023-04-28T07:27:47;99819.69;;;13.88;61.91
16190;BME280;41754;51.498;7.540;2023-04-28T07:30:15;99815.41;;;13.79;62.26
16190;BME280;41754;51.498;7.540;2023-04-28T07:32:53;99814.34;;;13.71;61.95
16190;BME280;41754;51.498;7.540;2023-04-28T07:35:22;99815.56;;;13.61;61.41
16190;BME280;41754;51.498;7.540;2023-04-28T07:37:50;99818.41;;;13.98;61.30
16190;BME280;41754;51.498;7.540;2023-04-28T07:40:19;99815.88;;;14.17;60.03
16190;BME280;41754;51.498;7.540;2023-04-28T07:42:48;99808.94;;;14.23;60.21
16190;BME280;41754;51.498;7.540;2023-04-28T07:45:16;99815.56;;;14.59;59.22
16190;BME280;41754;51.498;7.540;2023-04-28T07:47:43;99817.13;;;14.20;59.62
16190;BME280;41754;51.498;7.540;2023-04-28T07:50:12;99826.56;;;13.37;62.71
16190;BME280;41754;51.498;7.540;2023-04-28T07:52:39;99815.84;;;14.42;60.16
16190;BME280;41754;51.498;7.540;2023-04-28T07:55:08;99814.31;;;14.69;59.34
16190;BME280;41754;51.498;7.540;2023-04-28T07:57:37;99808.44;;;14.98;57.53
16190;BME280;41754;51.498;7.540;2023-04-28T08:00:07;99811.56;;;14.97;58.71
16190;BME280;41754;51.498;7.540;2023-04-28T08:02:39;99809.28;;;15.42;56.89
16190;BME280;41754;51.498;7.540;2023-04-28T08:05:08;99808.94;;;15.60;56.50
16190;BME280;41754;51.498;7.540;2023-04-28T08:07:36;99807.72;;;15.13;57.11
16190;BME280;41754;51.498;7.540;2023-04-28T08:10:05;99819.59;;;15.14;58.28
16190;BME280;41754;51.498;7.540;2023-04-28T08:12:34;99818.38;;;15.71;56.13
16190;BME280;41754;51.498;7.540;2023-04-28T08:15:05;99823.88;;;15.99;55.45
16190;BME280;41754;51.498;7.540;2023-04-28T08:17:33;99824.50;;;16.43;55.26
16190;BME280;41754;51.498;7.540;2023-04-28T08:20:01;99813.19;;;16.68;53.35
16190;BME280;41754;51.498;7.540;2023-04-28T08:22:29;99811.13;;;17.42;51.59
16190;BME280;41754;51.498;7.540;2023-04-28T08:24:57;99812.91;;;17.11;51.74
16190;BME280;41754;51.498;7.540;2023-04-28T08:27:25;99819.06;;;16.31;53.73
16190;BME280;41754;51.498;7.540;2023-04-28T08:29:53;99821.78;;;15.96;54.45
16190;BME280;41754;51.498;7.540;2023-04-28T08:32:22;99822.31;;;15.70;56.79
16190;BME280;41754;51.498;7.540;2023-04-28T08:34:50;99818.69;;;16.48;55.58
16190;BME280;41754;51.498;7.540;2023-04-28T08:37:18;99821.31;;;16.10;54.55
16190;BME280;41754;51.498;7.540;2023-04-28T08:39:46;99820.22;;;16.30;55.75
16190;BME280;41754;51.498;7.540;2023-04-28T08:42:15;99813.31;;;16.55;54.69
16190;BME280;41754;51.498;7.540;2023-04-28T08:44:45;99817.75;;;15.93;57.43
16190;BME280;41754;51.498;7.540;2023-04-28T08:47:15;99820.41;;;16.37;57.04
16190;BME280;41754;51.498;7.540;2023-04-28T08:49:44;99824.44;;;16.94;54.63
16190;BME280;41754;51.498;7.540;2023-04-28T08:52:16;99814.31;;;17.63;52.21
16190;BME280;41754;51.498;7.540;2023-04-28T08:54:46;99807.81;;;17.56;52.54
16190;BME280;41754;51.498;7.540;2023-04-28T08:57:15;99799.59;;;16.82;54.94
16190;BME280;41754;51.498;7.540;2023-04-28T08:59:44;99794.00;;;17.40;53.39
16190;BME280;41754;51.498;7.540;2023-04-28T09:02:12;99798.84;;;17.04;53.16
16190;BME280;41754;51.498;7.540;2023-04-28T09:04:40;99798.09;;;17.46;53.07
16190;BME280;41754;51.498;7.540;2023-04-28T09:07:11;99804.13;;;16.90;53.12
16190;BME280;41754;51.498;7.540;2023-04-28T09:09:40;99788.75;;;17.15;54.05
16190;BME280;41754;51.498;7.540;2023-04-28T09:12:07;99793.28;;;16.30;56.10
16190;BME280;41754;51.498;7.540;2023-04-28T09:14:37;99796.81;;;16.62;56.04
16190;BME280;41754;51.498;7.540;2023-04-28T09:17:09;99790.03;;;16.99;54.78
16190;BME280;41754;51.498;7.540;2023-04-28T09:19:39;99783.81;;;17.70;52.03
16190;BME280;41754;51.498;7.540;2023-04-28T09:22:10;99785.66;;;17.40;52.89
16190;BME280;41754;51.498;7.540;2023-04-28T09:24:41;99781.50;;;17.72;52.38
16190;BME280;41754;51.498;7.540;2023-04-28T09:27:10;99782.47;;;17.18;53.45
16190;BME280;41754;51.498;7.540;2023-04-28T09:29:38;99787.81;;;17.46;53.38
16190;BME280;41754;51.498;7.540;2023-04-28T09:32:13;99777.16;;;17.33;54.87
16190;BME280;41754;51.498;7.540;2023-04-28T09:34:42;99778.66;;;17.27;52.93
16190;BME280;41754;51.498;7.540;2023-04-28T09:37:17;99772.34;;;16.52;55.12
16190;BME280;41754;51.498;7.540;2023-04-28T09:39:46;99774.97;;;17.42;54.13
16190;BME280;41754;51.498;7.540;2023-04-28T09:42:33;99784.66;;;17.48;53.42
16190;BME280;41754;51.498;7.540;2023-04-28T09:45:02;99788.25;;;17.71;53.26
16190;BME280;41754;51.498;7.540;2023-04-28T09:47:32;99779.13;;;17.51;54.12
16190;BME280;41754;51.498;7.540;2023-04-28T09:50:03;99777.16;;;17.33;54.44
16190;BME280;41754;51.498;7.540;2023-04-28T09:52:34;99784.38;;;18.02;53.19
16190;BME280;41754;51.498;7.540;2023-04-28T09:55:04;99784.28;;;18.22;52.08
16190;BME280;41754;51.498;7.540;2023-04-28T09:57:35;99788.22;;;18.21;51.12
16190;BME280;41754;51.498;7.540;2023-04-28T10:00:04;99778.88;;;17.83;52.57
16190;BME280;41754;51.498;7.540;2023-04-28T10:02:34;99784.28;;;17.72;52.34
16190;BME280;41754;51.498;7.540;2023-04-28T10:05:07;99790.44;;;17.20;54.92
16190;BME280;41754;51.498;7.540;2023-04-28T10:07:39;99795.41;;;17.72;53.02
16190;BME280;41754;51.498;7.540;2023-04-28T10:10:07;99805.72;;;16.21;59.12
16190;BME280;41754;51.498;7.540;2023-04-28T10:12:35;99796.97;;;16.19;57.47
16190;BME280;41754;51.498;7.540;2023-04-28T10:15:08;99792.78;;;16.44;58.18
16190;BME280;41754;51.498;7.540;2023-04-28T10:17:37;99790.69;;;17.11;55.14
16190;BME280;41754;51.498;7.540;2023-04-28T10:20:07;99785.81;;;18.19;51.80
16190;BME280;41754;51.498;7.540;2023-04-28T10:22:51;99788.25;;;17.71;52.93
16190;BME280;41754;51.498;7.540;2023-04-28T10:25:25;99785.59;;;18.05;52.52
16190;BME280;41754;51.498;7.540;2023-04-28T10:27:54;99772.16;;;17.61;53.81
16190;BME280;41754;51.498;7.540;2023-04-28T10:30:23;99773.78;;;18.68;50.77
16190;BME280;41754;51.498;7.540;2023-04-28T10:33:23;99767.47;;;18.71;50.27
16190;BME280;41754;51.498;7.540;2023-04-28T10:35:55;99750.50;;;19.17;48.82
16190;BME280;41754;51.498;7.540;2023-04-28T10:38:24;99772.03;;;18.03;51.61
16190;BME280;41754;51.498;7.540;2023-04-28T10:40:52;99759.38;;;18.32;52.83
16190;BME280;41754;51.498;7.540;2023-04-28T10:43:38;99746.97;;;18.86;50.47
16190;BME280;41754;51.498;7.540;2023-04-28T10:46:08;99755.75;;;18.28;51.36
16190;BME280;41754;51.498;7.540;2023-04-28T10:49:01;99759.06;;;18.37;52.18
16190;BME280;41754;51.498;7.540;2023-04-28T10:51:30;99748.66;;;19.32;49.99
16190;BME280;41754;51.498;7.540;2023-04-28T10:54:16;99762.94;;;18.93;50.04
16190;BME280;41754;51.498;7.540;2023-04-28T10:57:16;99761.47;;;18.69;51.69
16190;BME280;41754;51.498;7.540;2023-04-28T10:59:48;99752.44;;;18.46;52.22
16190;BME280;41754;51.498;7.540;2023-04-28T11:02:47;99757.03;;;18.34;52.18
16190;BME280;41754;51.498;7.540;2023-04-28T11:05:16;99765.00;;;18.09;53.04
16190;BME280;41754;51.498;7.540;2023-04-28T11:13:53;99762.66;;;17.01;57.25
16190;BME280;41754;51.498;7.540;2023-04-28T11:16:23;99758.16;;;17.35;57.14
16190;BME280;41754;51.498;7.540;2023-04-28T11:18:54;99759.63;;;17.29;57.05
16190;BME280;41754;51.498;7.540;2023-04-28T11:21:24;99754.34;;;17.43;56.67
16190;BME280;41754;51.498;7.540;2023-04-28T11:23:54;99757.75;;;17.13;57.70
16190;BME280;41754;51.498;7.540;2023-04-28T11:26:24;99754.84;;;17.71;56.11
16190;BME280;41754;51.498;7.540;2023-04-28T11:28:54;99754.00;;;16.48;60.01
16190;BME280;41754;51.498;7.540;2023-04-28T11:31:23;99756.16;;;17.12;58.84
16190;BME280;41754;51.498;7.540;2023-04-28T11:33:55;99755.50;;;17.42;57.96
16190;BME280;41754;51.498;7.540;2023-04-28T11:36:29;99767.78;;;16.99;58.92
16190;BME280;41754;51.498;7.540;2023-04-28T11:38:57;99766.25;;;16.27;61.35
16190;BME280;41754;51.498;7.540;2023-04-28T11:41:27;99771.88;;;16.31;62.11
16190;BME280;41754;51.498;7.540;2023-04-28T11:43:55;99794.06;;;15.80;65.73
16190;BME280;41754;51.498;7.540;2023-04-28T11:46:24;99792.22;;;16.19;68.26
16190;BME280;41754;51.498;7.540;2023-04-28T11:49:00;99793.22;;;15.95;70.98
16190;BME280;41754;51.498;7.540;2023-04-28T11:51:31;99795.38;;;15.70;70.51
16190;BME280;41754;51.498;7.540;2023-04-28T11:54:00;99791.00;;;15.69;72.38
16190;BME280;41754;51.498;7.540;2023-04-28T11:56:30;99797.78;;;15.72;71.75
16190;BME280;41754;51.498;7.540;2023-04-28T11:59:00;99790.59;;;16.69;69.34
16190;BME280;41754;51.498;7.540;2023-04-28T12:01:30;99789.97;;;16.25;70.16
16190;BME280;41754;51.498;7.540;2023-04-28T12:03:58;99789.28;;;16.12;69.29
16190;BME280;41754;51.498;7.540;2023-04-28T12:06:27;99783.50;;;16.72;69.41
16190;BME280;41754;51.498;7.540;2023-04-28T12:08:55;99781.38;;;16.30;69.35
16190;BME280;41754;51.498;7.540;2023-04-28T12:11:29;99772.63;;;19.03;61.23
16190;BME280;41754;51.498;7.540;2023-04-28T12:14:07;99779.69;;;17.84;61.41
16190;BME280;41754;51.498;7.540;2023-04-28T12:16:40;99779.94;;;16.90;65.74
16190;BME280;41754;51.498;7.540;2023-04-28T12:19:11;99781.59;;;17.14;63.59
16190;BME280;41754;51.498;7.540;2023-04-28T12:21:41;99783.72;;;17.86;62.92
16190;BME280;41754;51.498;7.540;2023-04-28T12:24:14;99778.00;;;17.14;64.73
16190;BME280;41754;51.498;7.540;2023-04-28T12:26:43;99792.84;;;16.83;65.41
16190;BME280;41754;51.498;7.540;2023-04-28T12:29:33;99780.94;;;16.82;65.24
16190;BME280;41754;51.498;7.540;2023-04-28T12:32:02;99775.59;;;16.93;63.85
16190;BME280;41754;51.498;7.540;2023-04-28T12:34:30;99788.63;;;16.19;67.61
16190;BME280;41754;51.498;7.540;2023-04-28T12:36:59;99787.66;;;16.81;66.04
16190;BME280;41754;51.498;7.540;2023-04-28T12:39:28;99787.59;;;17.16;64.65
16190;BME280;41754;51.498;7.540;2023-04-28T12:41:57;99798.06;;;16.84;64.05
16190;BME280;41754;51.498;7.540;2023-04-28T12:44:25;99791.25;;;16.62;66.49
16190;BME280;41754;51.498;7.540;2023-04-28T12:46:54;99796.16;;;16.53;67.34
16190;BME280;41754;51.498;7.540;2023-04-28T12:49:23;99794.84;;;17.02;66.15
16190;BME280;41754;51.498;7.540;2023-04-28T12:51:51;99783.91;;;17.51;62.81
16190;BME280;41754;51.498;7.540;2023-04-28T12:54:19;99801.34;;;17.48;63.97
16190;BME280;41754;51.498;7.540;2023-04-28T12:56:47;99794.22;;;17.73;62.53
16190;BME280;41754;51.498;7.540;2023-04-28T12:59:17;99787.56;;;18.84;59.52
16190;BME280;41754;51.498;7.540;2023-04-28T13:01:45;99781.13;;;18.23;59.86
16190;BME280;41754;51.498;7.540;2023-04-28T13:04:13;99779.50;;;18.22;59.97
16190;BME280;41754;51.498;7.540;2023-04-28T13:06:41;99777.78;;;18.14;58.68
16190;BME280;41754;51.498;7.540;2023-04-28T13:09:10;99780.31;;;18.49;58.88
16190;BME280;41754;51.498;7.540;2023-04-28T13:11:38;99773.13;;;18.78;57.76
16190;BME280;41754;51.498;7.540;2023-04-28T13:14:06;99785.75;;;17.24;62.43
16190;BME280;41754;51.498;7.540;2023-04-28T13:16:36;99778.00;;;16.94;64.17